createdAt,value
2023-02-13T00:00:12.603Z,1.50
2023-02-13T00:03:14.564Z,1.34
2023-02-13T00:06:16.845Z,1.31
2023-02-13T00:09:18.569Z,1.34
2023-02-13T00:12:21.617Z,1.31
2023-02-13T00:15:23.301Z,1.22
2023-02-13T00:18:26.272Z,1.24
2023-02-13T00:21:28.208Z,1.20
2023-02-13T00:24:29.876Z,1.16
2023-02-13T00:27:33.911Z,1.10
2023-02-13T00:30:36.779Z,1.17
2023-02-13T00:33:39.077Z,1.25
2023-02-13T00:36:40.733Z,1.22
2023-02-13T00:39:42.441Z,1.20
2023-02-13T00:42:46.431Z,1.38
2023-02-13T00:45:48.117Z,1.64
2023-02-13T00:48:49.859Z,1.56
2023-02-13T00:51:51.608Z,1.53
2023-02-13T00:54:53.311Z,1.30
2023-02-13T00:57:56.350Z,1.24
2023-02-13T01:00:58.426Z,1.14
2023-02-13T01:04:00.343Z,1.12
2023-02-13T01:07:02.687Z,1.20
2023-02-13T01:10:04.977Z,1.03
2023-02-13T01:13:08.818Z,0.98
2023-02-13T01:16:11.071Z,0.96
2023-02-13T01:19:12.860Z,0.88
2023-02-13T01:22:14.623Z,1.31
2023-02-13T01:25:16.719Z,1.13
2023-02-13T01:28:19.788Z,1.09
2023-02-13T01:31:21.612Z,1.02
2023-02-13T01:34:25.328Z,0.91
2023-02-13T01:37:27.034Z,0.83
2023-02-13T01:40:30.097Z,0.84
2023-02-13T01:43:51.195Z,0.68
2023-02-13T01:46:54.747Z,0.65
2023-02-13T01:50:06.950Z,0.62
2023-02-13T01:53:12.534Z,0.62
2023-02-13T01:56:18.602Z,0.69
2023-02-13T01:59:27.025Z,0.66
2023-02-13T02:02:31.522Z,0.56
2023-02-13T02:05:36.615Z,0.58
2023-02-13T02:08:39.096Z,0.58
2023-02-13T02:11:50.257Z,0.58
2023-02-13T02:14:57.785Z,0.58
2023-02-13T02:17:59.638Z,0.53
2023-02-13T02:21:58.508Z,0.48
2023-02-13T02:25:26.243Z,0.47
2023-02-13T02:28:52.279Z,0.49
2023-02-13T02:32:16.235Z,0.47
2023-02-13T02:35:27.407Z,0.49
2023-02-13T02:38:45.571Z,0.44
2023-02-13T02:42:07.725Z,0.47
2023-02-13T02:45:26.443Z,0.58
2023-02-13T02:48:52.438Z,0.67
2023-02-13T02:52:06.326Z,0.62
2023-02-13T02:55:18.979Z,0.50
2023-02-13T02:58:51.941Z,0.42
2023-02-13T03:02:15.173Z,0.39
2023-02-13T03:05:41.151Z,0.36
2023-02-13T03:09:05.093Z,0.58
2023-02-13T03:12:27.857Z,0.44
2023-02-13T03:15:30.149Z,0.39
2023-02-13T03:18:53.786Z,0.97
2023-02-13T03:22:19.736Z,0.72
2023-02-13T03:25:37.290Z,0.51
2023-02-13T03:29:05.770Z,0.46
2023-02-13T03:32:18.073Z,0.66
2023-02-13T03:35:49.666Z,0.54
2023-02-13T03:38:59.383Z,0.47
2023-02-13T03:42:05.374Z,0.42
2023-02-13T03:45:31.369Z,0.43
2023-02-13T03:48:55.927Z,0.31
2023-02-13T03:52:02.898Z,0.31
2023-02-13T03:55:28.668Z,0.27
2023-02-13T03:58:53.584Z,0.34
2023-02-13T04:02:02.617Z,0.30
2023-02-13T04:05:08.717Z,0.30
2023-02-13T04:08:11.020Z,0.26
2023-02-13T04:11:18.844Z,0.28
2023-02-13T04:14:24.062Z,0.29
2023-02-13T04:17:36.041Z,0.26
2023-02-13T04:20:38.901Z,0.41
2023-02-13T04:23:40.605Z,0.49
2023-02-13T04:26:45.447Z,0.52
2023-02-13T04:29:47.064Z,0.52
2023-02-13T04:32:49.020Z,0.57
2023-02-13T04:35:50.874Z,0.65
2023-02-13T04:38:52.686Z,0.61
2023-02-13T04:41:55.782Z,0.71
2023-02-13T04:44:57.515Z,0.65
2023-02-13T04:47:59.193Z,0.56
2023-02-13T04:51:00.913Z,0.60
2023-02-13T04:54:02.780Z,0.60
2023-02-13T04:57:05.822Z,0.67
2023-02-13T05:00:09.002Z,0.75
2023-02-13T05:03:12.354Z,1.11
2023-02-13T05:06:14.488Z,1.26
2023-02-13T05:09:16.151Z,1.19
2023-02-13T05:12:19.112Z,1.12
2023-02-13T05:15:22.607Z,1.56
2023-02-13T05:18:24.330Z,1.54
2023-02-13T05:21:44.884Z,1.34
2023-02-13T05:24:46.531Z,1.34
2023-02-13T05:27:50.355Z,1.56
2023-02-13T05:30:52.173Z,1.36
2023-02-13T05:33:53.905Z,1.08
2023-02-13T05:36:55.908Z,0.94
2023-02-13T05:39:57.634Z,1.42
2023-02-13T05:43:01.621Z,1.18
2023-02-13T05:46:04.586Z,1.34
2023-02-13T05:49:06.875Z,1.16
2023-02-13T05:52:08.594Z,1.08
2023-02-13T05:55:10.327Z,0.90
2023-02-13T05:58:13.419Z,0.80
2023-02-13T06:01:15.175Z,0.83
2023-02-13T06:04:16.899Z,0.81
2023-02-13T06:07:18.674Z,0.91
2023-02-13T06:10:20.305Z,1.16
2023-02-13T06:13:23.410Z,0.90
2023-02-13T06:16:25.434Z,0.80
2023-02-13T06:19:27.382Z,0.59
2023-02-13T06:22:29.117Z,0.55
2023-02-13T06:25:30.875Z,0.55
2023-02-13T06:28:34.266Z,0.45
2023-02-13T06:31:36.222Z,0.44
2023-02-13T06:34:37.934Z,0.75
2023-02-13T06:37:39.753Z,0.62
2023-02-13T06:40:41.430Z,0.67
2023-02-13T06:43:44.592Z,0.67
2023-02-13T06:46:46.292Z,1.01
2023-02-13T06:49:47.982Z,1.01
2023-02-13T06:52:51.812Z,1.14
2023-02-13T06:55:54.319Z,0.77
2023-02-13T06:58:57.401Z,0.71
2023-02-13T07:01:59.139Z,0.61
2023-02-13T07:05:01.469Z,0.60
2023-02-13T07:08:03.314Z,0.63
2023-02-13T07:11:05.231Z,0.62
2023-02-13T07:14:09.060Z,0.55
2023-02-13T07:17:11.213Z,0.61
2023-02-13T07:20:13.487Z,0.63
2023-02-13T07:23:15.245Z,0.56
2023-02-13T07:26:17.135Z,0.65
2023-02-13T07:29:20.279Z,0.58
2023-02-13T07:32:21.959Z,0.65
2023-02-13T07:35:24.922Z,0.81
2023-02-13T07:38:26.574Z,0.81
2023-02-13T07:41:28.222Z,0.67
2023-02-13T07:44:32.022Z,0.66
2023-02-13T07:47:33.933Z,0.70
2023-02-13T07:50:35.697Z,0.73
2023-02-13T07:53:37.518Z,0.61
2023-02-13T07:56:39.323Z,0.59
2023-02-13T07:59:42.520Z,0.55
2023-02-13T08:02:44.416Z,0.64
2023-02-13T08:05:48.253Z,0.82
2023-02-13T08:09:09.959Z,0.84
2023-02-13T08:12:11.837Z,1.10
2023-02-13T08:15:15.831Z,1.11
2023-02-13T08:18:18.991Z,1.26
2023-02-13T08:21:21.759Z,1.37
2023-02-13T08:24:23.824Z,1.41
2023-02-13T08:27:25.701Z,1.50
2023-02-13T08:30:29.909Z,1.68
2023-02-13T08:33:31.658Z,1.69
2023-02-13T08:36:33.480Z,1.73
2023-02-13T08:39:35.349Z,1.91
2023-02-13T08:42:37.245Z,1.99
2023-02-13T08:45:40.574Z,2.06
2023-02-13T08:48:42.386Z,2.11
2023-02-13T08:51:44.344Z,2.34
2023-02-13T08:54:46.041Z,2.47
2023-02-13T08:57:48.112Z,2.46
2023-02-13T09:00:51.301Z,2.56
2023-02-13T09:03:53.363Z,2.68
2023-02-13T09:06:56.054Z,3.01
2023-02-13T09:09:57.859Z,3.07
2023-02-13T09:13:01.520Z,3.31
2023-02-13T09:16:06.683Z,3.54
2023-02-13T09:19:08.574Z,3.87
2023-02-13T09:22:10.338Z,4.06
2023-02-13T09:25:12.136Z,4.14
2023-02-13T09:28:13.903Z,4.37
2023-02-13T09:31:19.557Z,4.52
2023-02-13T09:34:21.498Z,4.59
2023-02-13T09:37:23.398Z,4.82
2023-02-13T09:43:55.744Z,5.00
2023-02-13T09:47:00.912Z,5.19
2023-02-13T09:50:03.380Z,5.33
2023-02-13T09:53:05.116Z,5.48
2023-02-13T09:56:14.638Z,5.73
2023-02-13T09:59:33.598Z,5.92
2023-02-13T10:02:47.608Z,6.00
2023-02-13T10:06:00.166Z,6.08
2023-02-13T10:09:13.002Z,6.39
2023-02-13T10:12:26.271Z,6.46
2023-02-13T10:15:34.247Z,6.51
2023-02-13T10:18:45.274Z,6.65
2023-02-13T10:21:52.980Z,6.83
2023-02-13T10:25:00.465Z,7.07
2023-02-13T10:28:10.318Z,7.28
2023-02-13T10:31:15.971Z,7.48
2023-02-13T10:34:22.454Z,7.51
2023-02-13T10:37:24.160Z,7.63
2023-02-13T10:40:31.984Z,7.89
2023-02-13T10:43:44.572Z,7.86
2023-02-13T10:46:55.980Z,8.03
2023-02-13T10:50:20.471Z,8.04
2023-02-13T10:53:33.882Z,8.20
2023-02-13T10:56:43.835Z,8.35
2023-02-13T10:59:56.747Z,8.46
2023-02-13T11:02:59.743Z,8.74
2023-02-13T11:06:09.083Z,8.56
2023-02-13T11:09:13.385Z,8.60
2023-02-13T11:12:27.009Z,8.76
2023-02-13T11:15:30.406Z,9.00
2023-02-13T11:18:34.653Z,9.39
2023-02-13T11:21:38.580Z,9.48
2023-02-13T11:24:42.100Z,9.39
2023-02-13T11:27:45.135Z,9.66
2023-02-13T11:30:48.922Z,9.66
2023-02-13T11:33:51.265Z,9.92
2023-02-13T11:37:14.045Z,9.97
2023-02-13T11:40:30.638Z,10.29
2023-02-13T11:43:36.843Z,10.15
2023-02-13T11:46:46.208Z,10.30
2023-02-13T11:49:48.031Z,10.34
2023-02-13T11:52:57.303Z,10.93
2023-02-13T11:56:06.007Z,11.22
2023-02-13T11:59:13.916Z,11.27
2023-02-13T12:02:19.283Z,11.29
2023-02-13T12:05:23.830Z,10.90
2023-02-13T12:08:27.720Z,11.30
2023-02-13T12:11:38.742Z,11.48
2023-02-13T12:14:45.291Z,11.82
2023-02-13T12:17:52.253Z,11.99
2023-02-13T12:21:00.004Z,11.94
2023-02-13T12:24:11.944Z,11.47
2023-02-13T12:27:23.949Z,11.03
2023-02-13T12:30:41.779Z,11.77
2023-02-13T12:34:11.368Z,11.73
2023-02-13T12:37:21.866Z,12.20
2023-02-13T12:40:39.446Z,11.90
2023-02-13T12:44:03.204Z,12.89
2023-02-13T12:47:15.544Z,11.96
2023-02-13T12:50:32.226Z,12.67
2023-02-13T12:54:01.742Z,11.91
2023-02-13T12:57:19.864Z,12.65
2023-02-13T13:00:35.603Z,12.48
2023-02-13T13:03:50.347Z,12.28
2023-02-13T13:07:19.358Z,12.73
2023-02-13T13:10:39.568Z,13.62
2023-02-13T13:13:53.931Z,14.52
2023-02-13T13:17:03.933Z,15.26
2023-02-13T13:20:29.668Z,15.72
2023-02-13T13:23:34.894Z,15.99
2023-02-13T13:26:40.916Z,16.05
2023-02-13T13:29:48.881Z,16.14
2023-02-13T13:32:56.612Z,14.60
2023-02-13T13:36:05.380Z,14.64
2023-02-13T13:39:20.014Z,15.35
2023-02-13T13:42:32.725Z,17.43
2023-02-13T13:45:47.587Z,16.58
2023-02-13T13:49:06.160Z,16.00
2023-02-13T13:52:21.005Z,16.09
2023-02-13T13:55:56.414Z,15.99
2023-02-13T13:58:58.841Z,17.19
2023-02-13T14:02:42.802Z,16.13
2023-02-13T14:06:00.823Z,16.04
2023-02-13T14:09:22.792Z,15.59
2023-02-13T14:12:38.187Z,15.11
2023-02-13T14:15:52.253Z,17.15
2023-02-13T14:18:54.046Z,18.25
2023-02-13T14:22:28.002Z,15.73
2023-02-13T14:25:32.280Z,14.55
2023-02-13T14:28:34.152Z,14.18
2023-02-13T14:31:39.467Z,13.91
2023-02-13T14:34:42.334Z,13.81
2023-02-13T14:37:52.307Z,14.18
2023-02-13T14:40:54.699Z,13.43
2023-02-13T14:43:56.562Z,13.37
2023-02-13T14:47:01.729Z,13.11
2023-02-13T14:50:05.767Z,12.99
2023-02-13T14:53:16.892Z,12.71
2023-02-13T14:56:22.690Z,12.93
2023-02-13T14:59:29.026Z,12.82
2023-02-13T15:02:35.553Z,12.56
2023-02-13T15:05:37.559Z,12.61
2023-02-13T15:08:47.031Z,12.63
2023-02-13T15:11:49.267Z,12.58
2023-02-13T15:14:51.434Z,12.54
2023-02-13T15:17:57.601Z,12.49
2023-02-13T15:21:01.331Z,12.65
2023-02-13T15:24:05.014Z,12.58
2023-02-13T15:27:16.472Z,12.15
2023-02-13T15:30:21.506Z,12.06
2023-02-13T15:33:25.533Z,12.23
2023-02-13T15:36:35.144Z,12.09
2023-02-13T15:39:38.243Z,12.05
2023-02-13T15:42:39.969Z,11.87
2023-02-13T15:45:43.928Z,11.86
2023-02-13T15:48:47.116Z,11.73
2023-02-13T15:51:50.228Z,11.76
2023-02-13T15:54:55.423Z,11.56
2023-02-13T15:57:59.211Z,11.68
2023-02-13T16:01:04.311Z,11.71
2023-02-13T16:04:09.822Z,11.55
2023-02-13T16:07:13.562Z,11.49
2023-02-13T16:10:17.733Z,11.50
2023-02-13T16:13:21.451Z,11.43
2023-02-13T16:16:24.087Z,11.35
2023-02-13T16:19:32.864Z,11.29
2023-02-13T16:22:37.827Z,11.15
2023-02-13T16:25:41.469Z,11.03
2023-02-13T16:28:46.476Z,10.60
2023-02-13T16:31:50.335Z,10.31
2023-02-13T16:34:54.280Z,9.96
2023-02-13T16:37:58.711Z,9.65
2023-02-13T16:41:05.911Z,9.37
2023-02-13T16:44:22.059Z,9.26
2023-02-13T16:47:24.884Z,8.98
2023-02-13T16:50:26.627Z,8.78
2023-02-13T16:53:28.614Z,8.54
2023-02-13T16:56:40.448Z,8.17
2023-02-13T16:59:52.823Z,8.00
2023-02-13T17:02:54.962Z,7.77
2023-02-13T17:06:01.141Z,7.64
2023-02-13T17:09:02.957Z,7.58
2023-02-13T17:12:13.354Z,7.31
2023-02-13T17:15:17.610Z,7.33
2023-02-13T17:18:19.251Z,7.06
2023-02-13T17:21:21.001Z,6.92
2023-02-13T17:24:22.850Z,6.66
2023-02-13T17:27:26.352Z,6.50
2023-02-13T17:30:31.935Z,6.35
2023-02-13T17:33:38.273Z,6.22
2023-02-13T17:36:40.093Z,6.05
2023-02-13T17:39:42.185Z,5.99
2023-02-13T17:42:47.080Z,5.86
2023-02-13T17:45:49.731Z,5.95
2023-02-13T17:48:51.678Z,5.74
2023-02-13T17:51:53.890Z,5.55
2023-02-13T17:54:55.702Z,5.53
2023-02-13T17:57:59.498Z,5.53
2023-02-13T18:01:02.026Z,5.38
2023-02-13T18:04:04.327Z,5.40
2023-02-13T18:07:06.275Z,5.34
2023-02-13T18:10:12.975Z,5.20
2023-02-13T18:13:16.462Z,5.22
2023-02-13T18:16:18.383Z,5.19
2023-02-13T18:19:20.276Z,5.00
2023-02-13T18:22:24.023Z,4.94
2023-02-13T18:25:25.794Z,5.12
2023-02-13T18:28:29.818Z,5.14
2023-02-13T18:31:31.670Z,4.92
2023-02-13T18:34:33.712Z,4.97
2023-02-13T18:37:35.926Z,5.08
2023-02-13T18:40:37.861Z,5.04
2023-02-13T18:43:41.180Z,4.86
2023-02-13T18:46:43.174Z,4.78
2023-02-13T18:49:48.141Z,4.76
2023-02-13T18:52:50.468Z,4.96
2023-02-13T18:55:59.556Z,4.98
2023-02-13T18:59:02.708Z,4.89
2023-02-13T19:02:05.445Z,4.83
2023-02-13T19:05:08.725Z,5.01
2023-02-13T19:08:10.684Z,5.23
2023-02-13T19:11:17.009Z,5.53
2023-02-13T19:14:20.593Z,5.74
2023-02-13T19:17:22.370Z,5.68
2023-02-13T19:20:24.548Z,5.34
2023-02-13T19:23:26.614Z,5.01
2023-02-13T19:26:28.381Z,4.82
2023-02-13T19:29:31.493Z,4.93
2023-02-13T19:32:33.492Z,4.72
2023-02-13T19:35:35.255Z,4.43
2023-02-13T19:38:37.653Z,4.39
2023-02-13T19:41:40.626Z,4.67
2023-02-13T19:44:43.808Z,5.09
2023-02-13T19:47:45.721Z,5.55
2023-02-13T19:50:47.472Z,6.12
2023-02-13T19:53:49.256Z,6.31
2023-02-13T19:56:51.304Z,6.51
2023-02-13T19:59:54.564Z,6.53
2023-02-13T20:03:00.619Z,6.66
2023-02-13T20:06:04.767Z,6.79
2023-02-13T20:09:08.766Z,6.65
2023-02-13T20:12:10.534Z,6.69
2023-02-13T20:15:13.562Z,6.95
2023-02-13T20:18:17.229Z,6.67
2023-02-13T20:21:19.608Z,6.50
2023-02-13T20:24:21.689Z,6.44
2023-02-13T20:27:23.686Z,6.55
2023-02-13T20:30:27.830Z,6.38
2023-02-13T20:33:29.634Z,6.34
2023-02-13T20:36:31.780Z,6.53
2023-02-13T20:39:33.436Z,6.61
2023-02-13T20:42:35.620Z,6.44
2023-02-13T20:45:39.031Z,6.70
2023-02-13T20:48:41.259Z,6.64
2023-02-13T20:51:43.051Z,6.44
2023-02-13T20:54:45.169Z,6.39
2023-02-13T20:57:46.963Z,6.03
2023-02-13T21:00:50.311Z,5.73
2023-02-13T21:03:54.629Z,5.57
2023-02-13T21:06:56.352Z,5.80
2023-02-13T21:09:57.989Z,6.27
2023-02-13T21:12:59.745Z,6.40
2023-02-13T21:16:08.590Z,6.47
2023-02-13T21:19:14.566Z,6.56
2023-02-13T21:22:16.297Z,6.38
2023-02-13T21:25:18.709Z,6.42
2023-02-13T21:28:20.983Z,6.40
2023-02-13T21:31:27.881Z,5.94
2023-02-13T21:34:29.856Z,6.12
2023-02-13T21:37:31.696Z,6.18
2023-02-13T21:40:33.360Z,5.86
2023-02-13T21:43:38.100Z,4.94
2023-02-13T21:46:42.312Z,5.37
2023-02-13T21:49:44.140Z,4.95
2023-02-13T21:52:46.446Z,4.73
2023-02-13T21:55:48.531Z,4.82
2023-02-13T21:58:50.339Z,4.34
2023-02-13T22:01:54.589Z,4.88
2023-02-13T22:04:56.405Z,4.77
2023-02-13T22:08:10.288Z,4.70
2023-02-13T22:11:12.193Z,4.39
2023-02-13T22:14:17.105Z,3.94
2023-02-13T22:19:34.627Z,3.46
2023-02-13T22:22:36.414Z,3.44
2023-02-13T22:25:38.164Z,3.32
2023-02-13T22:28:39.837Z,3.22
2023-02-13T22:31:42.255Z,3.14
2023-02-13T22:34:45.437Z,2.94
2023-02-13T22:37:47.119Z,2.70
2023-02-13T22:40:48.853Z,2.67
2023-02-13T22:43:51.340Z,2.58
2023-02-13T22:46:53.888Z,2.49
2023-02-13T22:49:57.102Z,2.29
2023-02-13T22:52:59.386Z,2.27
2023-02-13T22:56:01.860Z,2.18
2023-02-13T22:59:03.783Z,1.97
2023-02-13T23:02:06.113Z,1.84
2023-02-13T23:05:09.402Z,1.67
2023-02-13T23:08:11.905Z,1.68
2023-02-13T23:11:34.166Z,1.60
2023-02-13T23:14:35.812Z,1.72
2023-02-13T23:17:56.373Z,1.78
2023-02-13T23:21:05.152Z,1.57
2023-02-13T23:24:07.346Z,1.53
2023-02-13T23:27:09.072Z,1.43
2023-02-13T23:30:14.392Z,1.53
2023-02-13T23:33:16.256Z,1.43
2023-02-13T23:36:19.286Z,1.28
2023-02-13T23:39:21.402Z,1.18
2023-02-13T23:42:23.208Z,1.10
2023-02-13T23:45:25.030Z,0.96
2023-02-13T23:48:26.810Z,0.90
2023-02-13T23:51:30.241Z,0.82
2023-02-13T23:54:32.091Z,0.76
2023-02-13T23:57:33.802Z,0.73
